Time;durP1;ratioP1;P1;durP2;ratioP2;P2;SDS_P1;SDS_P2;PMS_P1;PMS_P2;Temp;Humidity;BMP_temperature;BMP_pressure;BME280_temperature;BME280_humidity;BME280_pressure;Samples;Min_cycle;Max_cycle;Signal;HPM_P1;HPM_P2
2022/11/07 00:02:50;;;;;;;4.82;2.88;;;;;;;10.89;98.21;99516.53;12228294;19;20634;-85
2022/11/07 00:06:52;;;;;;;7.82;2.83;;;;;;;10.95;98.40;99530.09;12225330;19;20018;-83
2022/11/07 00:10:54;;;;;;;4.78;2.70;;;;;;;10.97;98.16;99529.00;12205260;19;20030;-83
2022/11/07 00:14:55;;;;;;;6.22;2.65;;;;;;;11.00;98.57;99523.78;12224230;19;21996;-82
2022/11/07 00:18:57;;;;;;;5.47;2.83;;;;;;;11.03;98.88;99530.72;12226417;19;20014;-83
2022/11/07 00:22:59;;;;;;;5.35;3.17;;;;;;;11.06;99.14;99525.50;12201474;19;20518;-83
2022/11/07 00:27:00;;;;;;;7.43;2.90;;;;;;;11.06;99.47;99528.25;12224911;19;20033;-84
2022/11/07 00:31:03;;;;;;;10.70;2.70;;;;;;;11.07;99.52;99529.94;12222594;19;20010;-83
2022/11/07 00:35:05;;;;;;;5.97;3.03;;;;;;;11.08;99.82;99530.78;12207384;19;20562;-82
2022/11/07 00:39:08;;;;;;;6.35;3.28;;;;;;;11.07;100.00;99540.16;12232528;19;20021;-82
2022/11/07 00:43:10;;;;;;;7.10;2.90;;;;;;;11.08;100.00;99544.56;12276889;19;20011;-82
2022/11/07 00:47:12;;;;;;;3.97;2.13;;;;;;;11.10;100.00;99545.97;12254622;19;20035;-84
2022/11/07 00:51:22;;;;;;;5.03;2.75;;;;;;;11.11;100.00;99542.13;12249076;19;20018;-83
2022/11/07 00:55:24;;;;;;;7.72;3.22;;;;;;;11.07;100.00;99551.19;12218660;19;20057;-84
2022/11/07 00:59:26;;;;;;;5.53;3.10;;;;;;;11.05;100.00;99559.69;12234508;19;20042;-82
2022/11/07 01:07:47;;;;;;;6.53;3.25;;;;;;;11.03;100.00;99559.13;12211168;19;20052;-82
2022/11/07 01:11:49;;;;;;;6.15;3.35;;;;;;;11.00;100.00;99558.81;12232231;19;20006;-83
2022/11/07 01:15:51;;;;;;;4.78;3.00;;;;;;;10.97;100.00;99562.06;12234786;19;20529;-83
2022/11/07 01:19:53;;;;;;;7.03;3.25;;;;;;;10.97;100.00;99562.06;12210511;19;20054;-83
2022/11/07 01:23:55;;;;;;;6.03;3.28;;;;;;;10.97;100.00;99573.09;12227048;19;20046;-83
2022/11/07 01:27:57;;;;;;;6.07;3.33;;;;;;;11.01;100.00;99568.75;12229095;19;20027;-82
2022/11/07 01:31:58;;;;;;;6.28;3.58;;;;;;;10.98;100.00;99561.00;12203951;19;20083;-84
2022/11/07 01:36:11;;;;;;;5.03;2.63;;;;;;;10.93;100.00;99557.09;12227219;19;20093;-84
2022/11/07 01:40:14;;;;;;;6.78;2.75;;;;;;;10.94;100.00;99557.91;12227094;19;20011;-84
2022/11/07 01:44:16;;;;;;;5.72;3.15;;;;;;;10.92;100.00;99554.59;12203541;19;20027;-84
2022/11/07 01:48:19;;;;;;;6.93;2.97;;;;;;;10.85;100.00;99567.72;12228274;19;20009;-84
2022/11/07 01:52:27;;;;;;;8.82;3.42;;;;;;;10.75;100.00;99573.13;12209720;19;20579;-84
2022/11/07 01:56:34;;;;;;;6.95;3.50;;;;;;;10.67;100.00;99568.91;12225805;19;20348;-83
2022/11/07 02:01:15;;;;;;;5.25;3.22;;;;;;;10.61;100.00;99572.69;12222288;19;20061;-83
2022/11/07 02:05:33;;;;;;;6.13;3.60;;;;;;;10.59;100.00;99569.34;12204673;19;20010;-83
2022/11/07 02:09:35;;;;;;;5.50;2.80;;;;;;;10.56;100.00;99567.09;12224531;19;20072;-84
2022/11/07 02:13:45;;;;;;;6.25;3.05;;;;;;;10.57;100.00;99566.03;12202741;19;20090;-84
2022/11/07 02:17:48;;;;;;;6.28;3.30;;;;;;;10.60;100.00;99562.75;12222193;19;20023;-85
2022/11/07 02:21:58;;;;;;;6.28;3.10;;;;;;;10.67;100.00;99557.88;12222058;19;20006;-83
2022/11/07 02:26:03;;;;;;;6.63;3.33;;;;;;;10.69;100.00;99551.00;12203061;19;20017;-83
2022/11/07 02:30:11;;;;;;;6.47;3.42;;;;;;;10.70;100.00;99554.59;12234134;19;20028;-85
2022/11/07 02:34:12;;;;;;;8.40;3.33;;;;;;;10.75;100.00;99548.34;12231779;19;20050;-84
2022/11/07 02:38:35;;;;;;;5.63;2.97;;;;;;;10.76;100.00;99550.00;12205319;19;20364;-82
2022/11/07 02:42:44;;;;;;;6.97;3.13;;;;;;;10.67;100.00;99552.34;12232715;19;20074;-83
2022/11/07 02:46:46;;;;;;;4.93;2.85;;;;;;;10.56;100.00;99543.16;12210348;19;20426;-82
2022/11/07 02:50:47;;;;;;;5.28;3.10;;;;;;;10.46;100.00;99541.06;12230414;19;19998;-83
2022/11/07 02:54:49;;;;;;;5.28;3.17;;;;;;;10.39;100.00;99551.47;12227616;19;20471;-84
2022/11/07 02:58:53;;;;;;;6.80;2.95;;;;;;;10.35;100.00;99552.22;12209159;19;20011;-84
2022/11/07 03:02:57;;;;;;;7.80;2.85;;;;;;;10.28;100.00;99568.94;12235379;19;20021;-83
2022/11/07 03:06:58;;;;;;;8.85;3.47;;;;;;;10.26;100.00;99557.28;12238133;19;20006;-83
2022/11/07 03:11:01;;;;;;;5.43;2.72;;;;;;;10.27;100.00;99545.25;12211244;19;20113;-83
2022/11/07 03:15:08;;;;;;;7.47;3.03;;;;;;;10.25;100.00;99548.19;12236888;19;20033;-83
2022/11/07 03:19:09;;;;;;;9.88;2.83;;;;;;;10.26;100.00;99558.19;12232044;19;20018;-83
2022/11/07 03:23:11;;;;;;;7.65;2.42;;;;;;;10.35;100.00;99553.06;12208877;19;20007;-83
2022/11/07 03:27:14;;;;;;;5.80;2.50;;;;;;;10.35;100.00;99558.59;12236352;19;20014;-83
2022/11/07 03:31:15;;;;;;;5.93;2.87;;;;;;;10.37;100.00;99559.13;12234902;19;20022;-83
2022/11/07 03:35:18;;;;;;;4.72;2.53;;;;;;;10.39;100.00;99569.91;12212802;19;20479;-82
2022/11/07 03:39:19;;;;;;;8.20;2.80;;;;;;;10.48;100.00;99571.97;12232966;19;20081;-81
2022/11/07 03:43:26;;;;;;;7.15;2.80;;;;;;;10.63;100.00;99567.75;12210195;19;20017;-82
2022/11/07 03:47:33;;;;;;;7.45;2.83;;;;;;;10.78;100.00;99573.44;12240272;19;20018;-83
2022/11/07 03:51:34;;;;;;;7.00;2.63;;;;;;;10.92;100.00;99566.47;12234747;19;20003;-82
2022/11/07 03:55:36;;;;;;;5.82;2.72;;;;;;;11.05;100.00;99580.94;12214782;19;20484;-83
2022/11/07 03:59:38;;;;;;;5.32;2.22;;;;;;;11.18;100.00;99588.78;12234767;19;20029;-84
2022/11/07 04:03:40;;;;;;;9.13;3.40;;;;;;;11.28;100.00;99580.63;12233130;19;20014;-84
2022/11/07 04:07:41;;;;;;;6.45;2.15;;;;;;;11.40;100.00;99589.56;12214526;19;20030;-82
2022/11/07 04:20:31;;;;;;;7.45;2.30;;;;;;;11.67;100.00;99608.03;12211020;19;20003;-83
2022/11/07 04:24:35;;;;;;;6.47;2.13;;;;;;;11.74;100.00;99611.41;12235649;19;20006;-84
2022/11/07 04:28:39;;;;;;;5.95;2.45;;;;;;;11.81;100.00;99608.47;12215007;19;20060;-85
2022/11/07 04:32:41;;;;;;;5.35;2.10;;;;;;;11.84;100.00;99617.03;12232487;19;20006;-84
2022/11/07 04:36:44;;;;;;;7.15;2.40;;;;;;;11.89;100.00;99619.03;12232529;19;20446;-84
2022/11/07 04:40:56;;;;;;;3.78;1.60;;;;;;;11.91;100.00;99613.25;12207894;19;20022;-84
2022/11/07 04:44:58;;;;;;;4.80;1.88;;;;;;;11.95;100.00;99608.84;12231643;19;20506;-83
2022/11/07 04:49:01;;;;;;;;;;;;;;;11.98;100.00;99605.56;12229916;19;20010;-82
2022/11/07 04:53:04;;;;;;;4.70;1.80;;;;;;;12.04;100.00;99610.84;12204060;19;19911;-82
2022/11/07 04:57:05;;;;;;;4.80;2.33;;;;;;;12.08;100.00;99613.94;12230124;19;20408;-82
2022/11/07 05:01:07;;;;;;;5.13;1.80;;;;;;;12.12;100.00;99612.31;12217665;19;20070;-82
2022/11/07 05:05:12;;;;;;;7.70;2.20;;;;;;;12.15;100.00;99617.31;12198061;19;20014;-83
2022/11/07 05:09:17;;;;;;;5.33;1.97;;;;;;;12.17;100.00;99617.88;12219019;19;20011;-83
2022/11/07 05:13:19;;;;;;;4.63;1.98;;;;;;;12.14;100.00;99606.53;12229038;19;20248;-82
2022/11/07 05:17:21;;;;;;;5.53;2.13;;;;;;;12.13;100.00;99608.44;12208880;19;20014;-84
2022/11/07 05:21:28;;;;;;;4.20;1.77;;;;;;;12.19;100.00;99599.09;12226430;19;20480;-83
2022/11/07 05:25:30;;;;;;;7.18;2.10;;;;;;;12.19;100.00;99601.84;12208662;19;20452;-83
2022/11/07 05:29:32;;;;;;;5.25;1.85;;;;;;;12.23;100.00;99593.88;12232434;19;20060;-83
2022/11/07 05:33:34;;;;;;;8.65;2.20;;;;;;;12.21;100.00;99587.78;12234324;19;20011;-82
2022/11/07 05:37:36;;;;;;;5.40;1.77;;;;;;;12.27;100.00;99582.03;12210148;19;20006;-84
2022/11/07 05:41:37;;;;;;;8.13;2.13;;;;;;;12.25;100.00;99595.25;12226079;19;20047;-83
2022/11/07 05:45:42;;;;;;;5.85;2.15;;;;;;;12.20;100.00;99584.19;12225469;19;20006;-82
2022/11/07 05:49:44;;;;;;;8.98;2.47;;;;;;;12.07;100.00;99590.16;12213351;19;20006;-82
2022/11/07 05:53:48;;;;;;;6.82;2.00;;;;;;;12.00;100.00;99597.88;12234837;19;20006;-82
2022/11/07 05:58:07;;;;;;;5.97;1.90;;;;;;;11.94;100.00;99598.91;12241173;19;20016;-82
2022/11/07 06:02:08;;;;;;;4.60;2.00;;;;;;;11.91;100.00;99602.22;12218833;19;20083;-82
2022/11/07 06:06:10;;;;;;;4.20;1.98;;;;;;;11.90;100.00;99603.28;12262466;19;20008;-83
2022/11/07 06:10:12;;;;;;;6.63;2.22;;;;;;;11.86;100.00;99619.56;12261352;19;20027;-83
2022/11/07 06:14:13;;;;;;;8.93;1.80;;;;;;;11.84;100.00;99617.03;12237308;19;20032;-82
2022/11/07 06:18:19;;;;;;;5.75;1.90;;;;;;;11.83;100.00;99618.13;12257509;19;20006;-82
2022/11/07 06:22:21;;;;;;;5.40;1.77;;;;;;;11.85;100.00;99618.72;12242631;19;20074;-83
2022/11/07 06:26:23;;;;;;;5.30;1.83;;;;;;;11.96;100.00;99613.31;12220475;19;20026;-86
2022/11/07 06:30:25;;;;;;;6.90;2.00;;;;;;;12.04;100.00;99626.59;12216231;19;20006;-84
2022/11/07 06:34:27;;;;;;;4.33;1.67;;;;;;;12.11;100.00;99637.44;12198730;19;20010;-84
2022/11/07 06:38:28;;;;;;;3.65;1.85;;;;;;;12.18;100.00;99638.03;12234221;19;20010;-84
2022/11/07 06:42:31;;;;;;;6.22;2.28;;;;;;;12.24;100.00;99643.34;12230359;19;20003;-83
2022/11/07 06:46:32;;;;;;;3.45;1.73;;;;;;;12.32;100.00;99651.13;12207138;19;20372;-84
2022/11/07 06:50:34;;;;;;;7.90;2.05;;;;;;;12.38;100.00;99648.41;12211605;19;20034;-84
2022/11/07 06:54:36;;;;;;;5.97;2.33;;;;;;;12.41;100.00;99664.47;12210354;19;20015;-84
2022/11/07 06:58:38;;;;;;;7.30;2.05;;;;;;;12.44;100.00;99664.75;12205879;19;20282;-84
2022/11/07 07:02:40;;;;;;;7.65;1.95;;;;;;;12.46;100.00;99675.53;12207031;19;20374;-84
2022/11/07 07:06:59;;;;;;;8.00;2.00;;;;;;;12.49;100.00;99669.47;12225449;19;20011;-85
2022/11/07 07:11:06;;;;;;;6.47;2.42;;;;;;;12.57;100.00;99673.69;12204854;19;20029;-85
2022/11/07 07:15:09;;;;;;;7.78;2.10;;;;;;;12.62;100.00;99671.78;12269334;19;20026;-84
2022/11/07 07:19:20;;;;;;;4.82;1.73;;;;;;;12.70;100.00;99685.13;12243139;19;20019;-85
2022/11/07 07:23:22;;;;;;;6.80;2.00;;;;;;;12.78;100.00;99692.88;12230321;19;20014;-85
2022/11/07 07:27:33;;;;;;;5.97;2.10;;;;;;;12.86;100.00;99699.03;12237316;19;20003;-85
2022/11/07 07:31:51;;;;;;;9.10;1.73;;;;;;;12.94;100.00;99701.31;12201503;19;20018;-83
2022/11/07 07:36:07;;;;;;;5.60;1.75;;;;;;;13.00;100.00;99700.22;12208365;19;20055;-85
2022/11/07 07:40:53;;;;;;;6.18;1.63;;;;;;;13.05;100.00;99708.53;12249375;19;20017;-84
2022/11/07 08:01:20;;;;;;;5.45;1.80;;;;;;;13.36;100.00;99722.56;12261231;19;20020;-86
2022/11/07 08:11:25;;;;;;;5.00;1.55;;;;;;;13.45;100.00;99719.00;12240984;19;20019;-85
2022/11/07 08:15:36;;;;;;;7.20;1.83;;;;;;;13.52;100.00;99721.50;12225449;19;20050;-84
2022/11/07 08:24:53;;;;;;;5.15;1.60;;;;;;;13.83;100.00;99716.91;12215913;19;20010;-85
2022/11/07 08:29:17;;;;;;;6.82;2.00;;;;;;;13.93;100.00;99718.84;12220296;19;20018;-84
2022/11/07 08:43:15;;;;;;;12.43;1.92;;;;;;;14.17;100.00;99724.69;12221189;19;20021;-85
2022/11/07 08:47:18;;;;;;;5.32;1.60;;;;;;;14.31;100.00;99725.00;12220100;19;20014;-86
2022/11/07 08:51:19;;;;;;;6.00;1.77;;;;;;;14.58;100.00;99724.75;12226684;19;20690;-85
2022/11/07 08:55:21;;;;;;;8.18;2.30;;;;;;;14.77;100.00;99711.94;12215175;19;20018;-84
2022/11/07 08:59:24;;;;;;;10.15;1.80;;;;;;;14.82;99.38;99711.94;12222016;19;20030;-85
2022/11/07 09:03:26;;;;;;;5.68;1.58;;;;;;;15.00;98.59;99710.50;12221817;19;20014;-84
2022/11/07 09:07:48;;;;;;;7.22;2.17;;;;;;;15.17;97.53;99720.44;12203100;19;20039;-84
2022/11/07 09:11:49;;;;;;;7.60;1.83;;;;;;;15.26;95.79;99722.38;12218331;19;20002;-85
2022/11/07 09:15:56;;;;;;;7.20;1.67;;;;;;;15.23;95.34;99719.34;12219754;19;20023;-85
2022/11/07 09:19:57;;;;;;;8.70;2.13;;;;;;;15.11;95.08;99729.91;12197059;19;20091;-84
2022/11/07 09:23:59;;;;;;;7.05;2.75;;;;;;;15.16;95.59;99730.72;12216826;19;20029;-85
2022/11/07 09:28:02;;;;;;;5.45;1.80;;;;;;;15.20;94.34;99733.75;12218859;19;20002;-84
2022/11/07 09:32:03;;;;;;;7.15;1.88;;;;;;;15.02;94.26;99736.03;12194172;19;20589;-84
2022/11/07 09:36:25;;;;;;;5.32;2.00;;;;;;;14.89;94.81;99731.06;12218480;19;20014;-83
2022/11/07 09:40:57;;;;;;;4.45;2.42;;;;;;;14.86;95.34;99739.13;12197705;19;20356;-84
2022/11/07 09:45:00;;;;;;;8.80;2.00;;;;;;;14.94;95.26;99733.84;12216323;19;20006;-84
2022/11/07 09:49:14;;;;;;;7.38;2.22;;;;;;;14.89;95.03;99739.38;12219979;19;20007;-83
2022/11/07 09:53:21;;;;;;;;;;;;;;;14.91;95.13;99730.78;12197376;19;20018;-84
2022/11/07 09:57:32;;;;;;;7.93;2.17;;;;;;;14.93;94.92;99734.97;12219323;19;19922;-85
2022/11/07 10:01:34;;;;;;;6.15;1.58;;;;;;;15.01;95.00;99727.97;12194280;19;20007;-85
2022/11/07 10:06:01;;;;;;;6.63;1.95;;;;;;;15.03;94.58;99737.69;12218891;19;20530;-83
2022/11/07 10:10:09;;;;;;;6.80;1.88;;;;;;;15.03;94.73;99734.91;12208467;19;20080;-83
2022/11/07 10:14:29;;;;;;;9.20;2.22;;;;;;;15.02;95.04;99732.41;12194051;19;20014;-85
2022/11/07 10:18:50;;;;;;;7.95;1.90;;;;;;;14.95;95.32;99738.25;12217011;19;20014;-85
2022/11/07 10:22:57;;;;;;;6.60;1.65;;;;;;;14.97;95.63;99738.00;12192019;19;20010;-85
2022/11/07 10:27:01;;;;;;;4.30;1.55;;;;;;;15.01;95.66;99728.81;12210014;19;20011;-85
2022/11/07 10:31:06;;;;;;;7.20;1.70;;;;;;;15.10;96.04;99747.66;12217304;19;20034;-84
2022/11/07 10:35:36;;;;;;;9.90;2.53;;;;;;;15.37;95.19;99741.75;12195337;19;20010;-85
2022/11/07 10:39:38;;;;;;;6.38;1.65;;;;;;;15.40;94.09;99749.50;12219087;19;20041;-86
2022/11/07 10:43:41;;;;;;;9.23;1.70;;;;;;;15.48;93.29;99749.75;12194828;19;20078;-83
2022/11/07 10:47:56;;;;;;;5.45;1.40;;;;;;;15.80;92.87;99751.31;12213282;19;20722;-85
2022/11/07 10:52:07;;;;;;;3.50;1.92;;;;;;;15.98;91.14;99757.34;12210118;19;20078;-85
2022/11/07 10:56:11;;;;;;;11.45;2.25;;;;;;;15.91;91.17;99752.06;12191068;19;20014;-85
2022/11/07 11:00:25;;;;;;;6.70;1.80;;;;;;;15.84;91.75;99759.91;12211496;19;20804;-85
2022/11/07 11:04:31;;;;;;;5.97;1.75;;;;;;;15.84;92.47;99757.97;12188039;19;20002;-84
2022/11/07 11:08:36;;;;;;;11.27;2.08;;;;;;;15.81;92.42;99763.25;12209176;19;20018;-86
2022/11/07 11:12:44;;;;;;;6.97;1.80;;;;;;;15.80;92.19;99748.53;12206136;19;20013;-86
2022/11/07 11:16:52;;;;;;;9.63;1.67;;;;;;;15.86;91.56;99739.06;12189676;19;20034;-85
2022/11/07 11:20:57;;;;;;;6.05;1.77;;;;;;;15.94;91.88;99744.03;12215815;19;20014;-84
2022/11/07 11:25:17;;;;;;;7.00;2.15;;;;;;;16.20;91.20;99743.84;12221747;19;20099;-85
2022/11/07 11:29:46;;;;;;;6.15;1.77;;;;;;;16.37;89.75;99743.44;12199780;19;20033;-85
2022/11/07 11:33:57;;;;;;;5.18;1.50;;;;;;;16.41;89.21;99736.19;12219897;19;20412;-86
2022/11/07 11:38:12;;;;;;;6.25;1.55;;;;;;;16.42;88.90;99735.06;12199497;19;20033;-86
2022/11/07 11:42:46;;;;;;;10.40;2.47;;;;;;;16.41;88.56;99728.66;12219989;19;20057;-86
2022/11/07 11:47:04;;;;;;;12.18;1.98;;;;;;;16.37;88.24;99735.09;12196990;19;20017;-87
2022/11/07 11:51:38;;;;;;;10.52;2.25;;;;;;;16.26;88.02;99736.31;12224258;19;20153;-86
2022/11/07 11:55:49;;;;;;;6.70;1.80;;;;;;;16.15;89.27;99735.53;12201979;19;20002;-86
2022/11/07 12:00:19;;;;;;;6.35;2.00;;;;;;;16.10;89.23;99736.41;12224628;19;20396;-86
2022/11/07 12:04:36;;;;;;;7.85;2.97;;;;;;;16.11;89.31;99737.22;12223454;19;20089;-85
2022/11/07 12:08:50;;;;;;;6.50;1.77;;;;;;;16.20;89.87;99735.50;12200523;19;20110;-86
2022/11/07 12:13:13;;;;;;;7.15;2.05;;;;;;;16.19;89.50;99731.06;12217314;19;20024;-85
2022/11/07 12:17:39;;;;;;;5.60;1.85;;;;;;;16.28;88.73;99718.22;12198991;19;20007;-85
2022/11/07 12:21:47;;;;;;;10.50;2.08;;;;;;;16.36;88.63;99725.94;12217193;19;20054;-86
2022/11/07 12:26:00;;;;;;;6.57;1.60;;;;;;;16.47;88.99;99725.84;12200258;19;20033;-86
2022/11/07 12:30:24;;;;;;;8.60;1.77;;;;;;;16.65;88.11;99725.13;12220970;19;20018;-86
2022/11/07 12:34:51;;;;;;;6.40;1.70;;;;;;;16.84;87.85;99714.97;12200508;19;20014;-86
2022/11/07 12:39:26;;;;;;;7.97;1.55;;;;;;;17.07;86.84;99713.34;12269553;19;20007;-87
2022/11/07 12:43:59;;;;;;;10.10;2.20;;;;;;;17.12;85.51;99709.66;12234229;19;20344;-85
2022/11/07 12:48:33;;;;;;;8.48;1.70;;;;;;;17.01;84.68;99713.66;12217997;19;20563;-86
2022/11/07 12:52:43;;;;;;;9.57;1.92;;;;;;;16.76;85.54;99711.97;12193473;19;20034;-84
2022/11/07 12:56:47;;;;;;;6.45;1.83;;;;;;;16.55;86.06;99705.75;12212987;19;20010;-85
2022/11/07 13:00:50;;;;;;;5.50;1.60;;;;;;;16.38;86.89;99707.00;12209470;19;20021;-86
2022/11/07 13:05:30;;;;;;;5.35;1.85;;;;;;;16.30;87.48;99706.78;12194447;19;20018;-86
2022/11/07 13:09:32;;;;;;;6.60;1.77;;;;;;;16.26;87.84;99709.31;12215673;19;20012;-86
2022/11/07 13:14:14;;;;;;;8.18;1.65;;;;;;;16.14;87.81;99706.91;12190097;19;20441;-86
2022/11/07 13:18:26;;;;;;;6.68;1.75;;;;;;;15.94;88.75;99705.13;12216897;19;20011;-86
2022/11/07 13:22:33;;;;;;;9.98;1.88;;;;;;;15.81;89.27;99713.25;12194205;19;20010;-86
2022/11/07 13:26:35;;;;;;;5.20;2.22;;;;;;;15.63;90.08;99707.19;12215082;19;20006;-87
2022/11/07 13:30:55;;;;;;;9.73;1.67;;;;;;;15.50;91.17;99707.84;12220312;19;20022;-86
2022/11/07 13:34:58;;;;;;;5.72;1.60;;;;;;;15.40;91.99;99700.38;12194657;19;20033;-85
2022/11/07 13:39:05;;;;;;;13.18;1.98;;;;;;;15.40;92.69;99692.03;12217550;19;20116;-85
2022/11/07 13:43:16;;;;;;;9.95;2.20;;;;;;;15.44;92.92;99682.03;12217439;19;20350;-84
2022/11/07 13:47:24;;;;;;;9.60;2.00;;;;;;;15.63;93.13;99678.59;12198847;19;20006;-85
2022/11/07 13:51:41;;;;;;;10.63;2.33;;;;;;;15.92;92.32;99673.19;12222421;19;20027;-84
2022/11/07 13:55:47;;;;;;;8.38;2.00;;;;;;;16.11;91.27;99684.41;12200046;19;20010;-85
2022/11/07 14:00:03;;;;;;;4.50;2.00;;;;;;;16.30;90.70;99677.06;12217652;19;20018;-85
2022/11/07 14:04:19;;;;;;;8.23;2.15;;;;;;;16.42;89.54;99690.56;12219566;19;20410;-84
2022/11/07 14:08:27;;;;;;;9.23;2.08;;;;;;;16.40;89.12;99687.25;12198703;19;20022;-83
2022/11/07 14:12:30;;;;;;;12.30;2.80;;;;;;;16.33;88.50;99684.81;12220434;19;20026;-84
2022/11/07 14:16:32;;;;;;;6.03;2.10;;;;;;;16.25;88.78;99702.09;12195440;19;20025;-84
2022/11/07 14:20:33;;;;;;;7.43;1.90;;;;;;;16.27;88.64;99708.22;12256170;19;20028;-83
2022/11/07 14:24:35;;;;;;;9.40;2.20;;;;;;;16.26;88.82;99711.28;12240131;19;20017;-84
2022/11/07 14:28:39;;;;;;;12.50;2.58;;;;;;;16.16;88.42;99704.69;12214274;19;20014;-84
2022/11/07 14:32:54;;;;;;;9.77;1.90;;;;;;;16.06;88.13;99706.69;12231551;19;20010;-84
2022/11/07 14:36:59;;;;;;;8.40;2.65;;;;;;;15.95;87.84;99703.16;12235448;19;20015;-84
2022/11/07 14:41:02;;;;;;;10.02;2.30;;;;;;;15.87;87.60;99699.03;12208650;19;20491;-83
2022/11/07 14:45:05;;;;;;;7.85;1.95;;;;;;;15.81;88.21;99702.13;12257666;19;20011;-83
2022/11/07 14:49:19;;;;;;;6.68;2.20;;;;;;;15.70;88.64;99702.22;12271915;19;20010;-84
2022/11/07 14:53:35;;;;;;;11.77;2.03;;;;;;;15.62;89.59;99710.28;12220357;19;20003;-83
2022/11/07 14:57:38;;;;;;;7.43;1.95;;;;;;;15.52;90.55;99713.09;12237401;19;20341;-84
2022/11/07 15:01:51;;;;;;;;;;;;;;;15.45;91.44;99717.00;12205096;19;20007;-84
2022/11/07 15:05:53;;;;;;;8.80;2.53;;;;;;;15.43;91.19;99712.84;12230410;19;19945;-84
2022/11/07 15:09:58;;;;;;;6.60;2.05;;;;;;;15.42;92.24;99716.75;12227965;19;20594;-84
2022/11/07 15:14:02;;;;;;;5.75;1.75;;;;;;;15.38;92.68;99708.16;12202691;19;20046;-83
2022/11/07 15:18:05;;;;;;;6.10;1.83;;;;;;;15.32;92.91;99700.13;12229389;19;20014;-84
2022/11/07 15:22:25;;;;;;;11.52;2.83;;;;;;;15.28;93.75;99703.47;12222561;19;20483;-85
2022/11/07 15:26:30;;;;;;;10.05;2.28;;;;;;;15.26;93.85;99708.50;12210118;19;20037;-85
2022/11/07 15:30:32;;;;;;;9.50;2.22;;;;;;;15.21;93.95;99705.72;12225831;19;20006;-85
2022/11/07 15:34:34;;;;;;;13.47;3.17;;;;;;;15.17;94.63;99712.09;12207218;19;20026;-84
2022/11/07 15:38:57;;;;;;;6.35;1.95;;;;;;;15.15;94.89;99714.34;12227876;19;20279;-84
2022/11/07 15:42:58;;;;;;;6.18;1.85;;;;;;;15.12;95.06;99714.94;12232890;19;20003;-85
2022/11/07 15:47:02;;;;;;;12.55;2.78;;;;;;;15.11;95.13;99716.00;12204540;19;20409;-84
2022/11/07 15:51:03;;;;;;;10.32;2.75;;;;;;;15.11;95.23;99722.44;12225080;19;20025;-84
2022/11/07 15:55:14;;;;;;;7.93;2.30;;;;;;;15.08;95.73;99714.66;12228728;19;20495;-84
2022/11/07 15:59:19;;;;;;;9.55;2.28;;;;;;;15.02;95.90;99713.84;12205725;19;20007;-84
2022/11/07 16:03:23;;;;;;;12.23;2.60;;;;;;;15.00;96.28;99706.91;12224873;19;20077;-85
2022/11/07 16:07:24;;;;;;;8.35;1.98;;;;;;;14.94;96.51;99714.41;12222858;19;20029;-85
2022/11/07 16:11:26;;;;;;;10.27;3.17;;;;;;;14.88;96.96;99715.53;12218863;19;20011;-84
2022/11/07 16:15:29;;;;;;;8.13;2.22;;;;;;;14.85;97.46;99709.72;12223020;19;20034;-84
2022/11/07 16:19:31;;;;;;;6.95;2.13;;;;;;;14.87;97.49;99710.25;12202062;19;20014;-84
2022/11/07 16:23:32;;;;;;;6.57;2.45;;;;;;;14.85;97.69;99702.22;12220480;19;20046;-85
2022/11/07 16:27:34;;;;;;;8.02;2.70;;;;;;;14.82;97.77;99708.34;12225831;19;20006;-84
2022/11/07 16:31:36;;;;;;;9.38;2.30;;;;;;;14.79;97.71;99703.34;12202264;19;20007;-84
2022/11/07 16:35:39;;;;;;;5.27;1.90;;;;;;;14.70;97.85;99708.63;12227336;19;20014;-85
2022/11/07 16:39:40;;;;;;;;;;;;;;;14.61;98.33;99707.53;12228207;19;20093;-85
2022/11/07 16:43:43;;;;;;;9.27;2.22;;;;;;;14.52;98.32;99709.22;12211883;19;20411;-85
2022/11/07 16:47:47;;;;;;;5.28;1.88;;;;;;;14.42;98.91;99718.31;12236053;19;20014;-85
2022/11/07 16:51:54;;;;;;;5.70;1.90;;;;;;;14.34;99.47;99716.94;12231122;19;20022;-85
2022/11/07 16:56:01;;;;;;;7.35;1.88;;;;;;;14.32;100.00;99718.34;12212805;19;20006;-84
2022/11/07 17:00:03;;;;;;;5.60;2.22;;;;;;;14.29;100.00;99721.66;12222278;19;20003;-86
2022/11/07 17:04:17;;;;;;;6.82;2.45;;;;;;;14.27;100.00;99707.22;12225817;19;20023;-84
2022/11/07 17:08:40;;;;;;;5.90;2.20;;;;;;;14.23;100.00;99706.97;12204855;19;20007;-83
2022/11/07 17:13:41;;;;;;;7.70;2.65;;;;;;;14.15;100.00;99715.81;12225305;19;20082;-85
2022/11/07 17:17:56;;;;;;;7.72;2.40;;;;;;;14.09;100.00;99722.47;12200165;19;20006;-85
2022/11/07 17:31:45;;;;;;;9.82;2.42;;;;;;;13.81;100.00;99710.78;12221839;19;20021;-85
2022/11/07 17:35:52;;;;;;;4.85;2.20;;;;;;;13.75;100.00;99713.81;12227675;19;20022;-84
2022/11/07 17:40:43;;;;;;;7.55;2.25;;;;;;;13.70;100.00;99720.16;12223066;19;20011;-84
2022/11/07 17:45:13;;;;;;;6.45;3.08;;;;;;;13.64;100.00;99713.78;12169138;19;2004574;-83
2022/11/07 17:49:28;;;;;;;14.60;2.50;;;;;;;13.60;100.00;99709.91;12256585;19;20006;-85
2022/11/07 17:53:42;;;;;;;9.30;2.47;;;;;;;13.56;100.00;99713.47;12229881;19;20014;-83
2022/11/07 17:58:05;;;;;;;5.90;2.88;;;;;;;13.50;100.00;99718.16;12249001;19;20029;-85
2022/11/07 18:02:17;;;;;;;7.60;3.10;;;;;;;13.45;100.00;99735.59;12212229;19;20066;-85
2022/11/07 18:06:23;;;;;;;6.97;2.47;;;;;;;13.44;100.00;99749.69;12235875;19;20011;-85
2022/11/07 18:10:25;;;;;;;7.70;2.70;;;;;;;13.40;100.00;99743.88;12231757;19;20010;-84
2022/11/07 18:14:31;;;;;;;7.43;2.28;;;;;;;13.37;100.00;99743.59;12228496;19;20014;-84
2022/11/07 18:18:40;;;;;;;9.33;2.30;;;;;;;13.32;100.00;99744.38;12225418;19;20082;-84
2022/11/07 18:22:42;;;;;;;7.10;2.53;;;;;;;13.29;100.00;99738.56;12205428;19;20013;-84
2022/11/07 18:26:47;;;;;;;8.57;2.50;;;;;;;13.26;100.00;99742.69;12228441;19;20002;-84
2022/11/07 18:31:07;;;;;;;10.90;2.45;;;;;;;13.29;100.00;99735.78;12221841;19;20757;-83
2022/11/07 18:35:11;;;;;;;6.65;2.83;;;;;;;13.28;100.00;99736.91;12207305;19;20007;-84
2022/11/07 18:39:25;;;;;;;8.60;2.45;;;;;;;13.29;100.00;99741.31;12224025;19;20011;-84
2022/11/07 18:43:28;;;;;;;9.88;2.40;;;;;;;13.28;100.00;99734.97;12203895;19;20019;-84
2022/11/07 18:47:42;;;;;;;7.70;2.17;;;;;;;13.30;100.00;99732.78;12228528;19;20017;-84
2022/11/07 18:51:48;;;;;;;7.53;2.92;;;;;;;13.32;100.00;99725.00;12226055;19;20019;-85
2022/11/07 18:56:14;;;;;;;5.97;2.40;;;;;;;13.32;100.00;99730.53;12206280;19;20006;-84
2022/11/07 19:00:19;;;;;;;7.33;2.60;;;;;;;13.32;100.00;99718.66;12219753;19;20002;-84
2022/11/07 19:04:33;;;;;;;5.30;2.17;;;;;;;13.29;100.00;99721.97;12198258;19;20009;-84
2022/11/07 19:08:40;;;;;;;4.17;2.00;;;;;;;13.27;100.00;99725.00;12222620;19;20022;-85
2022/11/07 19:12:45;;;;;;;9.43;2.65;;;;;;;13.26;100.00;99722.50;12219489;19;20006;-84
2022/11/07 19:16:47;;;;;;;6.72;2.50;;;;;;;13.25;100.00;99724.44;12206868;19;20004;-85
2022/11/07 19:21:22;;;;;;;8.82;2.10;;;;;;;13.22;100.00;99731.31;12227946;19;20014;-86
2022/11/07 19:26:05;;;;;;;10.77;2.40;;;;;;;13.19;100.00;99725.47;12207502;19;20018;-85
2022/11/07 19:30:15;;;;;;;9.40;2.22;;;;;;;13.17;100.00;99724.91;12224203;19;20446;-86
2022/11/07 19:34:19;;;;;;;5.57;2.33;;;;;;;13.14;100.00;99725.44;12229862;19;20052;-86
2022/11/07 19:38:25;;;;;;;8.95;2.20;;;;;;;13.12;100.00;99728.50;12200816;19;20013;-85
2022/11/07 19:42:38;;;;;;;9.02;2.45;;;;;;;13.11;100.00;99731.53;12224949;19;20006;-85
2022/11/07 19:46:49;;;;;;;7.30;2.03;;;;;;;13.10;100.00;99722.41;12206057;19;20010;-85
2022/11/07 19:50:50;;;;;;;5.95;1.92;;;;;;;13.11;100.00;99724.03;12232814;19;20006;-84
2022/11/07 19:54:52;;;;;;;6.30;2.90;;;;;;;13.12;100.00;99725.72;12236938;19;20027;-86
2022/11/07 19:58:55;;;;;;;8.57;2.65;;;;;;;13.09;100.00;99725.44;12205571;19;20027;-86
2022/11/07 20:02:57;;;;;;;12.47;3.20;;;;;;;13.07;100.00;99731.22;12229823;19;20034;-86
2022/11/07 20:06:59;;;;;;;9.17;3.60;;;;;;;13.03;100.00;99732.88;12234579;19;20262;-84
2022/11/07 20:11:01;;;;;;;9.10;3.03;;;;;;;12.99;100.00;99732.56;12224879;19;20015;-87